createdAt,value
2018-09-09T00:01:54.992Z,91.50
2018-09-09T00:04:23.274Z,91.50
2018-09-09T00:06:51.550Z,91.60
2018-09-09T00:09:53.808Z,91.90
2018-09-09T00:12:22.103Z,91.90
2018-09-09T00:14:50.541Z,91.50
2018-09-09T00:17:18.871Z,91.60
2018-09-09T00:19:47.184Z,91.60
2018-09-09T00:22:15.478Z,91.60
2018-09-09T00:24:43.837Z,91.60
2018-09-09T00:27:12.121Z,91.60
2018-09-09T00:29:40.437Z,91.60
2018-09-09T00:32:08.738Z,91.60
2018-09-09T00:34:37.011Z,91.60
2018-09-09T00:37:05.356Z,91.90
2018-09-09T00:39:33.667Z,91.70
2018-09-09T00:42:01.971Z,91.60
2018-09-09T00:44:30.286Z,91.60
2018-09-09T00:46:58.570Z,91.70
2018-09-09T00:49:32.379Z,91.80
2018-09-09T00:52:06.064Z,91.90
2018-09-09T00:54:34.375Z,92.00
2018-09-09T00:57:02.683Z,92.10
2018-09-09T00:59:30.988Z,92.20
2018-09-09T01:01:59.288Z,92.20
2018-09-09T01:04:27.616Z,92.30
2018-09-09T01:06:55.891Z,92.20
2018-09-09T01:09:29.508Z,92.20
2018-09-09T01:11:57.803Z,92.20
2018-09-09T01:14:26.107Z,92.20
2018-09-09T01:16:54.407Z,92.20
2018-09-09T01:19:22.756Z,92.20
2018-09-09T01:21:51.255Z,92.30
2018-09-09T01:24:19.547Z,92.20
2018-09-09T01:26:47.841Z,92.20
2018-09-09T01:29:16.151Z,92.20
2018-09-09T01:31:44.455Z,92.30
2018-09-09T01:34:12.752Z,92.40
2018-09-09T01:36:41.052Z,92.40
2018-09-09T01:39:10.396Z,92.80
2018-09-09T01:41:38.736Z,92.60
2018-09-09T01:44:07.031Z,92.70
2018-09-09T01:46:35.326Z,92.70
2018-09-09T01:49:03.669Z,92.70
2018-09-09T01:51:31.963Z,92.60
2018-09-09T01:54:00.259Z,92.60
2018-09-09T01:56:28.635Z,92.60
2018-09-09T01:58:56.940Z,92.70
2018-09-09T02:01:25.264Z,92.70
2018-09-09T02:03:53.564Z,92.70
2018-09-09T02:06:22.135Z,92.80
2018-09-09T02:08:50.447Z,92.70
2018-09-09T02:11:18.734Z,92.70
2018-09-09T02:13:47.043Z,92.80
2018-09-09T02:16:15.346Z,92.70
2018-09-09T02:18:43.654Z,92.80
2018-09-09T02:21:11.982Z,92.80
2018-09-09T02:23:40.292Z,92.80
2018-09-09T02:26:08.575Z,92.90
2018-09-09T02:28:36.895Z,92.90
2018-09-09T02:31:05.197Z,92.80
2018-09-09T02:33:33.500Z,92.90
2018-09-09T02:36:01.856Z,92.90
2018-09-09T02:38:30.162Z,92.90
2018-09-09T02:40:58.480Z,93.00
2018-09-09T02:43:26.784Z,93.00
2018-09-09T02:45:55.097Z,93.00
2018-09-09T02:48:23.388Z,93.10
2018-09-09T02:50:51.921Z,93.10
2018-09-09T02:53:20.233Z,93.20
2018-09-09T02:55:48.565Z,93.30
2018-09-09T02:58:17.211Z,93.30
2018-09-09T03:00:46.184Z,93.00
2018-09-09T03:03:14.475Z,93.40
2018-09-09T03:05:43.023Z,93.40
2018-09-09T03:08:11.348Z,93.40
2018-09-09T03:10:40.314Z,93.40
2018-09-09T03:13:08.607Z,93.60
2018-09-09T03:15:36.898Z,93.50
2018-09-09T03:18:05.440Z,93.50
2018-09-09T03:20:33.783Z,93.80
2018-09-09T03:23:02.097Z,93.50
2018-09-09T03:25:30.387Z,93.60
2018-09-09T03:27:58.891Z,93.60
2018-09-09T03:30:27.199Z,94.10
2018-09-09T03:32:55.611Z,93.70
2018-09-09T03:35:23.902Z,93.60
2018-09-09T03:37:52.291Z,93.60
2018-09-09T03:40:20.609Z,93.60
2018-09-09T03:42:49.011Z,93.60
2018-09-09T03:45:17.326Z,93.50
2018-09-09T03:47:45.624Z,93.50
2018-09-09T03:50:14.061Z,93.50
2018-09-09T03:52:42.387Z,93.60
2018-09-09T03:55:10.683Z,93.60
2018-09-09T03:57:38.977Z,93.70
2018-09-09T04:00:07.437Z,93.70
2018-09-09T04:02:35.728Z,93.90
2018-09-09T04:05:04.007Z,94.00
2018-09-09T04:07:32.316Z,93.90
2018-09-09T04:10:00.635Z,94.00
2018-09-09T04:12:28.930Z,94.10
2018-09-09T04:14:57.247Z,94.10
2018-09-09T04:17:25.575Z,94.30
2018-09-09T04:19:53.860Z,94.40
2018-09-09T04:22:22.168Z,94.40
2018-09-09T04:24:50.467Z,94.40
2018-09-09T04:27:18.764Z,94.50
2018-09-09T04:29:47.069Z,94.50
2018-09-09T04:32:15.384Z,94.50
2018-09-09T04:34:43.687Z,94.70
2018-09-09T04:37:12.875Z,94.80
2018-09-09T04:39:41.175Z,94.70
2018-09-09T04:42:09.472Z,94.90
2018-09-09T04:44:37.771Z,95.00
2018-09-09T04:47:06.069Z,95.10
2018-09-09T04:49:34.357Z,95.10
2018-09-09T04:52:02.689Z,95.20
2018-09-09T04:54:31.005Z,95.30
2018-09-09T04:56:59.315Z,95.30
2018-09-09T04:59:27.640Z,95.50
2018-09-09T05:01:55.933Z,95.60
2018-09-09T05:04:24.236Z,95.70
2018-09-09T05:06:52.527Z,95.80
2018-09-09T05:09:20.847Z,95.80
2018-09-09T05:11:49.157Z,95.90
2018-09-09T05:14:17.489Z,96.00
2018-09-09T05:16:45.800Z,96.10
2018-09-09T05:19:14.106Z,96.00
2018-09-09T05:21:42.417Z,96.00
2018-09-09T05:24:10.710Z,96.00
2018-09-09T05:26:39.004Z,96.00
2018-09-09T05:29:07.319Z,95.90
2018-09-09T05:31:35.620Z,95.90
2018-09-09T05:34:03.919Z,96.00
2018-09-09T05:36:32.239Z,95.90
2018-09-09T05:39:00.533Z,96.00
2018-09-09T05:41:28.819Z,96.00
2018-09-09T05:43:57.153Z,96.00
2018-09-09T05:46:25.459Z,95.90
2018-09-09T05:48:53.743Z,95.80
2018-09-09T05:51:22.073Z,95.80
2018-09-09T05:53:50.378Z,95.80
2018-09-09T05:56:18.673Z,95.70
2018-09-09T05:58:47.112Z,95.70
2018-09-09T06:01:15.434Z,95.70
2018-09-09T06:03:43.876Z,95.60
2018-09-09T06:06:12.333Z,95.60
2018-09-09T06:08:40.703Z,95.50
2018-09-09T06:11:09.091Z,95.50
2018-09-09T06:13:37.801Z,95.50
2018-09-09T06:16:06.183Z,95.50
2018-09-09T06:18:34.483Z,95.40
2018-09-09T06:21:02.792Z,95.40
2018-09-09T06:23:31.151Z,95.40
2018-09-09T06:25:59.587Z,95.40
2018-09-09T06:28:27.940Z,95.40
2018-09-09T06:30:56.299Z,95.30
2018-09-09T06:33:24.607Z,95.10
2018-09-09T06:35:52.907Z,95.10
2018-09-09T06:38:21.211Z,95.10
2018-09-09T06:40:49.515Z,95.00
2018-09-09T06:43:17.827Z,94.90
2018-09-09T06:45:46.108Z,94.80
2018-09-09T06:48:14.386Z,94.70
2018-09-09T06:50:42.700Z,94.70
2018-09-09T06:53:10.995Z,94.70
2018-09-09T06:55:39.321Z,94.70
2018-09-09T06:58:07.998Z,94.80
2018-09-09T07:00:36.279Z,94.70
2018-09-09T07:03:04.640Z,94.70
2018-09-09T07:05:32.967Z,94.80
2018-09-09T07:08:01.262Z,94.70
2018-09-09T07:10:29.572Z,95.00
2018-09-09T07:12:57.867Z,94.60
2018-09-09T07:15:26.192Z,94.50
2018-09-09T07:17:54.600Z,94.40
2018-09-09T07:20:22.896Z,94.30
2018-09-09T07:22:51.197Z,94.10
2018-09-09T07:25:19.526Z,94.00
2018-09-09T07:27:47.824Z,93.90
2018-09-09T07:30:16.140Z,93.70
2018-09-09T07:32:44.450Z,93.40
2018-09-09T07:35:13.015Z,93.40
2018-09-09T07:37:41.358Z,93.00
2018-09-09T07:40:09.703Z,93.10
2018-09-09T07:42:38.006Z,92.70
2018-09-09T07:45:06.341Z,92.20
2018-09-09T07:47:34.648Z,92.30
2018-09-09T07:50:02.967Z,92.20
2018-09-09T07:52:31.272Z,91.90
2018-09-09T07:54:59.604Z,92.10
2018-09-09T07:57:27.938Z,92.00
2018-09-09T07:59:56.248Z,91.80
2018-09-09T08:02:24.552Z,91.60
2018-09-09T08:04:52.896Z,91.20
2018-09-09T08:07:21.239Z,91.50
2018-09-09T08:09:49.589Z,91.40
2018-09-09T08:12:17.912Z,91.30
2018-09-09T08:14:46.212Z,91.20
2018-09-09T08:17:14.588Z,91.00
2018-09-09T08:19:42.889Z,90.90
2018-09-09T08:22:11.184Z,90.70
2018-09-09T08:24:39.519Z,90.80
2018-09-09T08:27:07.828Z,90.60
2018-09-09T08:29:36.278Z,90.60
2018-09-09T08:32:04.613Z,90.50
2018-09-09T08:34:32.903Z,90.30
2018-09-09T08:37:01.213Z,89.40
2018-09-09T08:39:29.549Z,89.90
2018-09-09T08:41:57.848Z,90.30
2018-09-09T08:44:26.127Z,88.30
2018-09-09T08:46:54.496Z,88.10
2018-09-09T08:49:22.801Z,86.80
2018-09-09T08:51:51.182Z,86.00
2018-09-09T08:54:19.468Z,86.00
2018-09-09T08:56:47.775Z,85.20
2018-09-09T08:59:16.088Z,85.00
2018-09-09T09:01:44.453Z,83.40
2018-09-09T09:04:12.947Z,83.80
2018-09-09T09:06:41.242Z,83.00
2018-09-09T09:09:10.639Z,82.30
2018-09-09T09:14:07.040Z,81.90
2018-09-09T11:15:04.420Z,79.70
2018-09-09T11:17:32.711Z,67.40
2018-09-09T11:20:01.020Z,68.80
2018-09-09T11:22:29.676Z,68.70
2018-09-09T11:24:57.977Z,68.60
2018-09-09T11:27:26.736Z,68.80
2018-09-09T11:29:55.262Z,69.30
2018-09-09T11:32:23.946Z,69.40
2018-09-09T11:34:52.434Z,69.70
2018-09-09T11:37:21.605Z,69.80
2018-09-09T11:39:50.516Z,68.80
2018-09-09T11:42:18.851Z,69.60
2018-09-09T11:44:47.340Z,69.50
2018-09-09T11:47:15.646Z,68.50
2018-09-09T11:49:44.043Z,67.90
2018-09-09T11:52:12.452Z,67.40
2018-09-09T11:54:42.471Z,68.80
2018-09-09T11:57:11.145Z,68.70
2018-09-09T11:59:39.464Z,68.50
2018-09-09T12:02:08.074Z,66.70
2018-09-09T12:04:36.373Z,67.30
2018-09-09T12:07:04.675Z,66.50
2018-09-09T12:09:32.985Z,65.30
2018-09-09T12:12:01.297Z,65.10
2018-09-09T12:14:29.572Z,64.80
2018-09-09T12:16:57.875Z,65.00
2018-09-09T12:19:26.174Z,64.70
2018-09-09T12:21:54.708Z,65.10
2018-09-09T12:24:23.298Z,65.30
2018-09-09T12:26:51.642Z,64.80
2018-09-09T12:29:19.953Z,63.10
2018-09-09T12:31:48.286Z,63.20
2018-09-09T12:34:16.639Z,63.60
2018-09-09T12:36:44.984Z,63.60
2018-09-09T12:39:17.449Z,63.50
2018-09-09T12:41:45.823Z,62.30
2018-09-09T12:44:19.684Z,61.90
2018-09-09T12:46:54.387Z,62.60
2018-09-09T12:49:22.741Z,61.00
2018-09-09T12:51:51.141Z,60.90
2018-09-09T12:54:19.513Z,60.50
2018-09-09T12:56:51.204Z,61.20
2018-09-09T12:59:19.676Z,61.70
2018-09-09T13:01:48.140Z,61.00
2018-09-09T13:04:16.452Z,60.60
2018-09-09T13:06:45.501Z,61.30
2018-09-09T13:09:13.952Z,61.40
2018-09-09T13:11:42.251Z,59.70
2018-09-09T13:14:10.581Z,59.90
2018-09-09T13:16:38.894Z,59.40
2018-09-09T13:19:07.227Z,60.70
2018-09-09T13:21:35.527Z,59.90
2018-09-09T13:24:03.838Z,60.40
2018-09-09T13:26:32.163Z,60.20
2018-09-09T13:29:00.471Z,60.10
2018-09-09T13:31:28.864Z,60.70
2018-09-09T13:33:57.182Z,60.90
2018-09-09T13:36:25.510Z,59.00
2018-09-09T13:38:53.827Z,58.70
2018-09-09T13:41:22.136Z,59.20
2018-09-09T13:43:50.466Z,59.40
2018-09-09T13:46:18.860Z,59.40
2018-09-09T13:48:47.309Z,58.80
2018-09-09T13:51:15.607Z,59.60
2018-09-09T13:53:43.936Z,59.90
2018-09-09T13:56:12.246Z,59.80
2018-09-09T13:58:40.531Z,59.90
2018-09-09T14:01:08.846Z,59.80
2018-09-09T14:03:37.130Z,59.80
2018-09-09T14:06:05.446Z,58.80
2018-09-09T14:08:33.756Z,58.90
2018-09-09T14:11:02.084Z,59.30
2018-09-09T14:18:26.476Z,59.20
2018-09-09T14:20:54.774Z,59.90
2018-09-09T14:23:23.076Z,58.30
2018-09-09T14:25:51.378Z,58.70
2018-09-09T14:28:19.677Z,57.70
2018-09-09T14:30:47.999Z,57.20
2018-09-09T14:33:16.304Z,57.40
2018-09-09T14:35:44.612Z,57.00
2018-09-09T14:38:12.938Z,57.70
2018-09-09T14:40:41.241Z,58.20
2018-09-09T14:43:09.555Z,58.20
2018-09-09T14:45:37.879Z,58.80
2018-09-09T14:48:06.268Z,58.40
2018-09-09T14:50:34.605Z,58.60
2018-09-09T14:53:02.926Z,57.60
2018-09-09T14:55:31.239Z,58.10
2018-09-09T14:57:59.541Z,58.40
2018-09-09T15:00:27.892Z,58.60
2018-09-09T15:02:56.233Z,58.30
2018-09-09T15:05:24.608Z,58.60
2018-09-09T15:07:52.951Z,58.50
2018-09-09T18:08:12.584Z,58.20
2018-09-09T18:10:41.193Z,71.80
2018-09-09T18:13:09.525Z,73.10
2018-09-09T18:15:37.842Z,73.50
2018-09-09T18:18:06.176Z,73.70
2018-09-09T18:20:34.571Z,74.00
2018-09-09T18:23:02.913Z,74.20
2018-09-09T18:25:31.271Z,74.70
2018-09-09T18:27:59.572Z,74.80
2018-09-09T18:30:27.986Z,74.90
2018-09-09T18:32:56.313Z,72.80
2018-09-09T18:35:24.629Z,72.20
2018-09-09T18:37:52.919Z,72.50
2018-09-09T18:40:21.228Z,72.60
2018-09-09T18:42:49.528Z,72.60
2018-09-09T18:45:18.881Z,72.60
2018-09-09T18:47:47.327Z,73.10
2018-09-09T18:50:15.629Z,73.50
2018-09-09T18:52:43.931Z,73.60
2018-09-09T18:55:12.283Z,74.00
2018-09-09T18:57:40.582Z,74.50
2018-09-09T19:00:08.958Z,75.10
2018-09-09T19:02:37.260Z,76.10
2018-09-09T19:05:05.593Z,76.20
2018-09-09T19:07:33.901Z,77.10
2018-09-09T19:10:02.270Z,77.90
2018-09-09T19:12:30.565Z,78.80
2018-09-09T19:14:59.339Z,79.80
2018-09-09T19:17:27.657Z,80.30
2018-09-09T19:19:55.975Z,80.40
2018-09-09T19:22:24.354Z,81.50
2018-09-09T19:24:52.689Z,81.80
2018-09-09T19:27:20.967Z,82.50
2018-09-09T19:29:49.263Z,83.60
2018-09-09T19:32:17.552Z,84.50
2018-09-09T19:34:45.877Z,84.80
2018-09-09T19:37:14.200Z,85.30
2018-09-09T19:39:42.504Z,85.40
2018-09-09T19:42:10.847Z,86.20
2018-09-09T19:44:39.183Z,86.60
2018-09-09T19:47:07.492Z,86.60
2018-09-09T20:53:46.671Z,87.60
2018-09-09T20:56:14.965Z,80.50
2018-09-09T20:58:43.328Z,80.20
2018-09-09T21:01:11.627Z,79.80
2018-09-09T21:03:39.927Z,79.90
2018-09-09T21:06:08.273Z,80.20
2018-09-09T21:08:36.617Z,80.40
2018-09-09T21:11:05.153Z,81.00
2018-09-09T21:13:33.485Z,81.70
2018-09-09T21:16:01.845Z,82.30
2018-09-09T21:18:30.146Z,83.80
2018-09-09T21:20:58.435Z,83.70
2018-09-09T21:23:26.748Z,84.70
2018-09-09T21:25:55.059Z,85.20
2018-09-09T21:28:23.424Z,86.00
2018-09-09T21:30:51.911Z,87.30
2018-09-09T21:33:20.222Z,88.00
2018-09-09T21:35:48.511Z,88.70
2018-09-09T21:38:16.805Z,89.30
2018-09-09T21:40:45.094Z,89.80
2018-09-09T21:43:13.415Z,90.20
2018-09-09T21:45:41.700Z,90.50
2018-09-09T21:48:10.033Z,91.10
2018-09-09T21:50:38.361Z,91.00
2018-09-09T21:53:06.651Z,91.30
2018-09-09T21:55:34.947Z,91.40
2018-09-09T21:58:03.263Z,91.60
2018-09-09T22:00:31.648Z,91.90
2018-09-09T22:02:59.961Z,92.10
2018-09-09T22:05:28.247Z,92.50
2018-09-09T22:07:56.661Z,92.80
2018-09-09T22:10:24.959Z,92.90
2018-09-09T22:12:53.256Z,93.10
2018-09-09T22:15:21.549Z,93.50
2018-09-09T22:17:49.863Z,93.30
2018-09-09T22:20:18.179Z,93.40
2018-09-09T22:22:46.480Z,93.40
2018-09-09T22:25:15.723Z,93.60
2018-09-09T22:27:44.048Z,93.60
2018-09-09T22:30:12.363Z,93.60
2018-09-09T22:32:40.642Z,93.70
2018-09-09T22:35:08.940Z,93.70
2018-09-09T22:37:37.272Z,93.90
2018-09-09T22:40:05.568Z,93.90
2018-09-09T22:42:33.871Z,94.00
2018-09-09T22:45:02.167Z,94.10
2018-09-09T22:47:30.470Z,94.00
2018-09-09T22:49:58.763Z,94.10
2018-09-09T22:52:27.061Z,94.30
2018-09-09T22:54:55.334Z,94.30
2018-09-09T22:57:23.658Z,94.40
2018-09-09T22:59:51.947Z,94.50
2018-09-09T23:02:20.299Z,94.60
2018-09-09T23:04:48.586Z,94.90
2018-09-09T23:07:16.889Z,95.10
2018-09-09T23:09:45.172Z,94.70
2018-09-09T23:12:13.475Z,94.80
2018-09-09T23:14:41.787Z,95.00
2018-09-09T23:17:10.088Z,95.10
2018-09-09T23:19:38.383Z,95.20
2018-09-09T23:22:06.668Z,95.30
2018-09-09T23:24:34.947Z,95.40
2018-09-09T23:27:03.283Z,95.50
2018-09-09T23:29:31.575Z,95.60
2018-09-09T23:31:59.872Z,95.80
2018-09-09T23:34:28.413Z,95.90
2018-09-09T23:36:56.706Z,95.90
2018-09-09T23:39:24.995Z,96.00
2018-09-09T23:41:53.336Z,96.20
2018-09-09T23:44:21.815Z,96.20
2018-09-09T23:46:50.116Z,96.10
2018-09-09T23:49:18.443Z,96.20
2018-09-09T23:51:46.718Z,96.40
2018-09-09T23:54:15.026Z,96.40
2018-09-09T23:56:43.319Z,96.30
2018-09-09T23:59:11.629Z,96.20
